Time;durP1;ratioP1;P1;durP2;ratioP2;P2;SDS_P1;SDS_P2;PMS_P1;PMS_P2;Temp;Humidity;BMP_temperature;BMP_pressure;BME280_temperature;BME280_humidity;BME280_pressure;Samples;Min_cycle;Max_cycle;Signal;HPM_P1;HPM_P2
2021/05/12 00:02:17;;;;;;;1.27;0.80;;;;;;;38.82;25.29;161425.30;1585687;89;21318;-84
2021/05/12 00:04:49;;;;;;;0.78;0.78;;;;;;;38.77;25.26;161413.25;1585473;90;21240;-83
2021/05/12 00:07:22;;;;;;;1.15;0.72;;;;;;;38.72;25.19;161399.81;1585570;90;21241;-84
2021/05/12 00:09:54;;;;;;;0.60;0.60;;;;;;;38.66;25.14;161383.70;1585523;90;21278;-84
2021/05/12 00:12:26;;;;;;;1.37;0.80;;;;;;;38.62;25.09;161372.97;1585750;89;21686;-84
2021/05/12 00:14:59;;;;;;;3.45;0.90;;;;;;;38.56;25.05;161355.55;1585612;89;21715;-84
2021/05/12 00:17:32;;;;;;;0.65;0.65;;;;;;;38.54;24.95;161351.50;1585567;90;21230;-85
2021/05/12 00:20:06;;;;;;;1.50;1.10;;;;;;;38.53;24.80;161348.86;1592655;89;21326;-83
2021/05/12 00:25:11;;;;;;;0.82;0.82;;;;;;;38.37;24.59;161304.59;1594271;90;21325;-84
2021/05/12 00:27:44;;;;;;;5.10;0.80;;;;;;;38.32;24.54;161292.53;1594346;90;21289;-83
2021/05/12 00:30:19;;;;;;;1.07;0.93;;;;;;;38.30;24.39;161287.22;1594582;90;21710;-83
2021/05/12 00:32:52;;;;;;;6.33;1.00;;;;;;;38.39;24.26;161309.97;1594333;90;21860;-83
2021/05/12 00:35:24;;;;;;;0.80;0.75;;;;;;;38.36;24.21;161303.28;1587343;89;21232;-84
2021/05/12 00:37:57;;;;;;;0.80;0.80;;;;;;;38.20;24.30;161259.02;1561045;90;21213;-84
2021/05/12 00:40:30;;;;;;;1.37;0.82;;;;;;;38.12;24.34;161237.59;1560753;90;21313;-85
2021/05/12 00:43:03;;;;;;;1.75;0.82;;;;;;;38.03;24.41;161214.81;1561021;90;21249;-84
2021/05/12 00:45:35;;;;;;;4.20;0.80;;;;;;;38.02;24.35;161210.81;1597464;88;21210;-84
2021/05/12 00:48:08;;;;;;;0.85;0.80;;;;;;;37.95;24.35;161192.02;1605553;88;21215;-84
2021/05/12 00:50:41;;;;;;;0.93;0.90;;;;;;;37.91;24.36;161181.28;1605530;89;21231;-85
2021/05/12 00:53:13;;;;;;;3.33;1.00;;;;;;;37.86;24.36;161167.92;1605687;89;21215;-82
2021/05/12 00:55:46;;;;;;;1.15;0.90;;;;;;;37.87;24.36;161169.23;1605743;89;21404;-86
2021/05/12 00:58:18;;;;;;;0.90;0.72;;;;;;;37.83;24.41;161159.88;1605759;88;21215;-83
2021/05/12 01:00:50;;;;;;;1.22;1.00;;;;;;;37.86;24.39;161166.55;1604079;88;21266;-84
2021/05/12 01:03:23;;;;;;;1.02;0.93;;;;;;;37.85;24.40;161163.92;1605715;88;21333;-84
2021/05/12 01:05:59;;;;;;;3.50;0.80;;;;;;;37.79;24.44;161147.81;1600498;89;21209;-84
2021/05/12 01:08:32;;;;;;;1.00;0.90;;;;;;;37.65;24.49;161110.25;1594309;90;21241;-85
2021/05/12 01:11:04;;;;;;;0.90;0.90;;;;;;;37.61;24.49;161100.89;1594296;90;21788;-84
2021/05/12 01:13:37;;;;;;;1.47;1.10;;;;;;;37.59;24.50;161095.53;1594219;90;21202;-85
2021/05/12 01:16:11;;;;;;;3.20;1.10;;;;;;;37.56;24.52;161087.48;1594209;90;21733;-84
2021/05/12 01:19:54;;;;;;;1.92;1.12;;;;;;;37.52;24.51;161075.42;1594415;90;21721;-84
2021/05/12 01:22:28;;;;;;;2.10;0.95;;;;;;;37.47;24.53;161063.38;1576209;88;21346;-86
2021/05/12 01:25:01;;;;;;;1.10;1.05;;;;;;;37.53;24.50;161079.48;1576069;91;21938;-86
2021/05/12 01:27:33;;;;;;;1.40;1.00;;;;;;;37.47;24.58;161062.06;1576189;91;21859;-84
2021/05/12 01:30:06;;;;;;;1.10;1.00;;;;;;;37.38;24.63;161039.28;1576206;90;21383;-84
2021/05/12 01:32:39;;;;;;;1.50;1.12;;;;;;;37.30;24.69;161016.47;1576156;91;21452;-85
2021/05/12 01:35:12;;;;;;;2.58;1.00;;;;;;;37.26;24.69;161007.09;1576171;91;21852;-85
2021/05/12 01:37:44;;;;;;;1.17;1.07;;;;;;;37.16;24.74;160980.33;1576033;91;21431;-85
2021/05/12 01:40:16;;;;;;;1.10;0.88;;;;;;;37.13;24.77;160970.97;1576401;89;21879;-84
2021/05/12 01:42:49;;;;;;;1.65;1.00;;;;;;;37.06;24.79;160953.56;1576267;91;21321;-84
2021/05/12 01:45:21;;;;;;;0.93;0.90;;;;;;;37.13;24.75;160972.28;1576211;91;21383;-85
2021/05/12 01:47:54;;;;;;;2.77;1.15;;;;;;;37.07;24.72;160956.25;1576378;91;21889;-85
2021/05/12 01:50:27;;;;;;;5.28;0.90;;;;;;;37.05;24.74;160950.87;1576368;90;21245;-84
2021/05/12 01:53:00;;;;;;;1.57;1.20;;;;;;;37.03;24.76;160944.20;1576426;89;21229;-84
2021/05/12 01:55:32;;;;;;;2.15;0.95;;;;;;;37.40;24.57;161044.66;1576359;90;21280;-85
2021/05/12 01:58:05;;;;;;;1.62;0.90;;;;;;;36.95;24.80;160922.75;1576390;91;21250;-85
2021/05/12 02:00:44;;;;;;;1.02;0.90;;;;;;;37.61;24.44;161099.58;1576366;91;21732;-85
2021/05/12 02:03:18;;;;;;;2.08;0.93;;;;;;;36.89;24.80;160905.28;1553375;92;21430;-84
2021/05/12 02:05:51;;;;;;;2.75;0.80;;;;;;;36.57;25.02;160821.00;1559295;91;21245;-85
2021/05/12 02:08:26;;;;;;;1.12;0.95;;;;;;;36.47;25.10;160792.88;1566551;91;21248;-84
2021/05/12 02:11:04;;;;;;;0.93;0.88;;;;;;;36.42;25.13;160780.78;1563287;91;21406;-84
2021/05/12 02:13:37;;;;;;;0.88;0.80;;;;;;;36.40;25.13;160775.42;1588930;89;21313;-85
2021/05/12 02:16:09;;;;;;;0.80;0.80;;;;;;;36.37;25.16;160767.38;1573233;90;21400;-85
2021/05/12 02:18:42;;;;;;;1.12;0.90;;;;;;;36.31;25.19;160751.34;1582345;90;21441;-85
2021/05/12 02:21:14;;;;;;;1.20;1.10;;;;;;;36.26;25.23;160737.94;1589872;89;21258;-84
2021/05/12 02:23:46;;;;;;;1.20;1.00;;;;;;;36.21;25.28;160724.59;1606051;89;21220;-84
2021/05/12 02:26:19;;;;;;;0.90;0.70;;;;;;;36.14;25.33;160705.83;1607355;89;21222;-84
2021/05/12 02:28:51;;;;;;;0.95;0.75;;;;;;;36.11;25.34;160697.78;1608342;89;21323;-84
2021/05/12 02:31:24;;;;;;;1.15;0.90;;;;;;;36.34;25.16;160758.03;1610835;88;21377;-85
2021/05/12 02:33:57;;;;;;;1.10;1.00;;;;;;;36.10;25.39;160695.16;1623870;88;21710;-85
2021/05/12 02:36:29;;;;;;;1.05;0.95;;;;;;;36.00;25.48;160665.67;1609790;89;21279;-84
2021/05/12 02:39:02;;;;;;;1.37;0.98;;;;;;;35.93;25.54;160646.92;1609920;89;21318;-85
2021/05/12 02:41:34;;;;;;;1.07;0.80;;;;;;;35.87;25.59;160632.20;1582639;90;21326;-85
2021/05/12 02:44:07;;;;;;;0.80;0.80;;;;;;;35.84;25.64;160624.16;1582597;90;21295;-84
2021/05/12 02:46:39;;;;;;;0.80;0.75;;;;;;;35.81;25.70;160614.81;1582621;90;21247;-85
2021/05/12 02:49:11;;;;;;;1.45;0.82;;;;;;;35.78;25.73;160606.77;1582681;90;21904;-84
2021/05/12 02:51:44;;;;;;;1.10;1.00;;;;;;;35.75;25.76;160598.78;1582546;90;21402;-85
2021/05/12 02:54:16;;;;;;;1.27;1.00;;;;;;;35.68;25.81;160580.03;1597421;89;21247;-84
2021/05/12 02:56:49;;;;;;;1.37;0.98;;;;;;;35.64;25.87;160570.67;1606534;89;21251;-85
2021/05/12 02:59:22;;;;;;;0.95;0.90;;;;;;;35.63;25.87;160566.69;1606620;88;21194;-85
2021/05/12 03:01:54;;;;;;;0.85;0.80;;;;;;;35.61;25.94;160561.31;1606625;89;21800;-85
2021/05/12 03:04:27;;;;;;;3.67;0.98;;;;;;;35.59;25.99;160557.28;1606689;89;21280;-85
2021/05/12 03:06:59;;;;;;;1.40;1.05;;;;;;;35.50;26.04;160533.16;1606461;88;21582;-85
2021/05/12 03:09:31;;;;;;;1.82;1.10;;;;;;;35.47;26.08;160525.17;1606747;89;21774;-85
2021/05/12 03:12:04;;;;;;;0.80;0.80;;;;;;;35.40;26.13;160505.11;1604593;89;21209;-85
2021/05/12 03:14:37;;;;;;;1.52;0.90;;;;;;;35.38;26.14;160499.75;1604276;88;21727;-84
2021/05/12 03:17:09;;;;;;;3.08;1.00;;;;;;;35.41;26.19;160507.78;1606701;89;21205;-85
2021/05/12 03:19:42;;;;;;;0.82;0.80;;;;;;;35.37;26.19;160497.06;1606502;89;21240;-85
2021/05/12 03:22:14;;;;;;;1.10;0.90;;;;;;;35.41;26.17;160507.78;1606557;88;21272;-85
2021/05/12 03:24:47;;;;;;;1.82;1.00;;;;;;;36.23;25.52;160728.59;1606551;88;21251;-84
2021/05/12 03:27:19;;;;;;;1.87;1.27;;;;;;;36.17;25.50;160713.87;1606525;88;21225;-85
2021/05/12 03:29:52;;;;;;;2.45;1.80;;;;;;;36.35;25.39;160762.02;1606611;88;21220;-85
2021/05/12 03:32:24;;;;;;;2.83;1.60;;;;;;;36.29;25.50;160745.98;1606425;89;21277;-85
2021/05/12 03:34:56;;;;;;;1.60;1.37;;;;;;;36.23;25.50;160728.59;1606396;89;21216;-84
2021/05/12 03:37:29;;;;;;;2.33;1.20;;;;;;;35.60;26.05;160559.95;1606541;89;21237;-85
2021/05/12 03:40:01;;;;;;;0.95;0.80;;;;;;;35.52;26.16;160537.27;1606629;89;21237;-85
2021/05/12 03:42:35;;;;;;;1.32;1.20;;;;;;;35.93;25.78;160646.92;1606675;89;21819;-85
2021/05/12 03:45:09;;;;;;;1.10;1.00;;;;;;;35.47;26.19;160525.17;1606605;88;21268;-85
2021/05/12 03:47:41;;;;;;;1.17;1.00;;;;;;;35.30;26.34;160479.69;1606744;89;21234;-85
2021/05/12 03:50:13;;;;;;;1.00;1.00;;;;;;;35.31;26.39;160482.36;1606614;88;21236;-85
2021/05/12 03:52:46;;;;;;;1.00;0.90;;;;;;;35.30;26.41;160479.69;1605152;89;21266;-86
2021/05/12 03:55:18;;;;;;;2.10;0.80;;;;;;;35.30;26.41;160478.38;1606635;88;21708;-85
2021/05/12 03:57:51;;;;;;;1.10;0.75;;;;;;;35.32;26.42;160483.67;1606416;89;21189;-85
2021/05/12 04:00:23;;;;;;;0.70;0.70;;;;;;;35.29;26.44;160475.69;1612095;88;21813;-86
2021/05/12 04:02:55;;;;;;;0.70;0.70;;;;;;;35.30;26.46;160479.69;1620487;88;21226;-85
2021/05/12 04:05:28;;;;;;;0.80;0.70;;;;;;;35.26;26.54;160467.66;1606786;86;21259;-86
2021/05/12 04:08:03;;;;;;;5.05;1.62;;;;;;;35.24;26.59;160462.30;1609079;88;21342;-88
2021/05/12 04:10:37;;;;;;;3.52;0.85;;;;;;;35.25;26.65;160464.97;1607756;88;21780;-86
2021/05/12 04:13:09;;;;;;;1.00;0.80;;;;;;;35.28;26.62;160473.00;1607827;87;21228;-87
2021/05/12 04:15:43;;;;;;;0.80;0.78;;;;;;;35.40;26.60;160505.11;1607230;88;21236;-85
2021/05/12 04:18:16;;;;;;;0.62;0.60;;;;;;;35.33;26.65;160487.72;1608840;88;21248;-88
2021/05/12 04:20:49;;;;;;;0.98;0.80;;;;;;;35.81;26.36;160616.17;1607193;88;21275;-89
2021/05/12 04:23:22;;;;;;;3.45;0.80;;;;;;;35.92;26.31;160644.23;1607832;88;21325;-88
2021/05/12 04:25:54;;;;;;;0.80;0.65;;;;;;;35.96;26.27;160656.27;1607163;87;21247;-89
2021/05/12 04:28:27;;;;;;;2.37;0.90;;;;;;;35.94;26.29;160650.91;1607464;87;21306;-90
2021/05/12 04:30:59;;;;;;;1.77;0.70;;;;;;;35.98;26.27;160661.62;1607259;87;21790;-89
2021/05/12 04:33:32;;;;;;;0.72;0.60;;;;;;;35.99;26.26;160663.05;1607413;88;21208;-89
2021/05/12 04:36:05;;;;;;;0.65;0.65;;;;;;;35.99;26.26;160664.36;1606738;87;21211;-89
2021/05/12 04:38:38;;;;;;;0.60;0.50;;;;;;;36.00;26.25;160665.67;1606612;88;21746;-90
2021/05/12 04:41:10;;;;;;;1.55;0.90;;;;;;;36.01;26.27;160669.72;1606987;87;22209;-87
2021/05/12 04:43:44;;;;;;;0.60;0.60;;;;;;;35.99;26.30;160663.05;1607727;87;21227;-88
2021/05/12 04:46:17;;;;;;;2.30;0.70;;;;;;;36.04;26.32;160677.77;1608107;87;21442;-90
2021/05/12 04:48:50;;;;;;;0.60;0.60;;;;;;;36.06;26.32;160681.75;1606970;88;21216;-91
2021/05/12 04:51:23;;;;;;;2.12;0.70;;;;;;;35.96;26.39;160654.95;1607899;88;21263;-88
2021/05/12 04:53:56;;;;;;;2.35;0.90;;;;;;;35.92;26.46;160645.59;1608493;87;21275;-86
2021/05/12 04:56:29;;;;;;;0.93;0.75;;;;;;;35.89;26.50;160636.19;1608592;87;21306;-84
2021/05/12 04:59:02;;;;;;;1.30;0.70;;;;;;;35.91;26.51;160641.56;1607656;87;21208;-86
2021/05/12 05:01:34;;;;;;;0.80;0.68;;;;;;;35.38;26.91;160499.75;1607263;87;21196;-85
2021/05/12 05:04:07;;;;;;;1.60;0.90;;;;;;;35.37;27.00;160497.06;1606860;88;21235;-85
2021/05/12 05:06:40;;;;;;;3.10;1.05;;;;;;;35.74;26.85;160597.42;1606881;87;21263;-84
2021/05/12 05:09:12;;;;;;;2.42;1.02;;;;;;;35.42;27.06;160511.78;1608251;88;21188;-87
2021/05/12 05:11:45;;;;;;;2.05;0.90;;;;;;;35.44;27.12;160515.78;1607552;86;21227;-87
2021/05/12 05:14:18;;;;;;;0.82;0.70;;;;;;;35.45;27.10;160519.81;1606581;88;21239;-89
2021/05/12 05:16:51;;;;;;;0.75;0.68;;;;;;;35.50;27.09;160531.84;1607158;87;21263;-93
2021/05/12 05:19:24;;;;;;;0.85;0.80;;;;;;;35.47;27.12;160523.81;1608614;87;21766;-92
2021/05/12 05:21:58;;;;;;;0.93;0.70;;;;;;;35.54;27.16;160542.56;1608273;86;21247;-90
2021/05/12 05:24:31;;;;;;;0.53;0.53;;;;;;;35.63;27.12;160566.69;1609980;87;21329;-89
2021/05/12 05:27:07;;;;;;;1.22;0.70;;;;;;;35.71;27.04;160588.06;1617590;87;21251;-88
2021/05/12 05:29:40;;;;;;;12.43;1.67;;;;;;;35.66;27.07;160574.66;1618004;87;21226;-88
2021/05/12 05:32:14;;;;;;;1.62;0.80;;;;;;;35.67;27.05;160577.34;1598066;88;21270;-88
2021/05/12 05:35:06;;;;;;;0.70;0.70;;;;;;;35.71;27.04;160588.06;1604280;88;21380;-91
2021/05/12 05:37:57;;;;;;;1.10;0.80;;;;;;;35.74;27.05;160596.09;1594245;88;21262;-90
2021/05/12 05:40:48;;;;;;;0.68;0.55;;;;;;;35.78;27.07;160608.14;1594632;88;21269;-86
2021/05/12 05:43:41;;;;;;;2.72;0.75;;;;;;;35.83;27.02;160620.17;1526918;92;21331;-87
2021/05/12 05:46:31;;;;;;;0.67;0.63;;;;;;;35.83;27.02;160620.17;1552717;91;21289;-87
2021/05/12 05:49:23;;;;;;;0.85;0.80;;;;;;;35.86;26.99;160628.20;1594498;88;21304;-86
2021/05/12 05:52:13;;;;;;;0.70;0.70;;;;;;;35.91;27.03;160641.56;1620064;87;21720;-91
2021/05/12 05:55:04;;;;;;;0.68;0.65;;;;;;;35.95;27.05;160653.59;1619071;87;21291;-89
2021/05/12 05:57:55;;;;;;;2.77;0.98;;;;;;;35.96;27.07;160656.27;1618015;87;21223;-89
2021/05/12 06:00:47;;;;;;;0.80;0.68;;;;;;;35.98;27.03;160660.31;1618779;87;21262;-87
2021/05/12 06:03:19;;;;;;;0.57;0.50;;;;;;;35.99;27.07;160664.36;1618513;87;21260;-89
2021/05/12 06:06:09;;;;;;;1.20;0.60;;;;;;;36.06;27.03;160683.06;1619673;87;21355;-92
2021/05/12 06:08:59;;;;;;;2.37;0.70;;;;;;;36.10;26.95;160695.16;1619536;88;21775;-91
2021/05/12 06:11:51;;;;;;;0.93;0.65;;;;;;;36.14;26.90;160704.52;1619415;88;21223;-84
2021/05/12 06:14:42;;;;;;;1.98;0.60;;;;;;;36.21;26.93;160724.59;1618875;88;21421;-86
2021/05/12 06:17:32;;;;;;;0.55;0.55;;;;;;;36.27;26.88;160740.63;1553111;91;21240;-86
2021/05/12 06:20:23;;;;;;;0.50;0.50;;;;;;;36.34;26.86;160759.34;1577261;90;21764;-87
2021/05/12 06:23:13;;;;;;;0.40;0.40;;;;;;;36.43;26.77;160783.47;1582434;90;21415;-85
2021/05/12 06:26:13;;;;;;;2.17;0.57;;;;;;;36.45;26.69;160788.88;1594367;89;21325;-86
2021/05/12 06:28:57;;;;;;;0.90;0.70;;;;;;;36.51;26.54;160804.91;1585907;90;21270;-86
2021/05/12 06:31:47;;;;;;;1.70;0.80;;;;;;;36.53;26.46;160810.28;1586084;89;21327;-86
2021/05/12 06:34:32;;;;;;;1.32;0.60;;;;;;;36.58;26.41;160823.62;1516157;90;21277;-86
2021/05/12 06:37:22;;;;;;;1.40;0.78;;;;;;;36.60;26.42;160829.00;1585895;89;21264;-86
2021/05/12 06:40:02;;;;;;;1.25;0.70;;;;;;;36.61;26.38;160830.36;1574489;89;22427;-86
2021/05/12 06:42:34;;;;;;;2.37;0.70;;;;;;;36.69;26.32;160853.08;1586016;89;21402;-87
2021/05/12 06:45:08;;;;;;;1.92;0.60;;;;;;;36.64;26.34;160838.34;1585956;90;21394;-86
2021/05/12 06:47:41;;;;;;;2.37;0.60;;;;;;;36.65;26.32;160841.03;1586047;90;21943;-86
2021/05/12 06:50:13;;;;;;;0.50;0.40;;;;;;;36.70;26.29;160854.44;1586139;89;21367;-87
2021/05/12 06:52:47;;;;;;;0.93;0.62;;;;;;;36.71;26.25;160858.44;1586001;90;21759;-87
2021/05/12 06:55:20;;;;;;;0.62;0.53;;;;;;;36.80;26.16;160882.56;1585975;89;21244;-86
2021/05/12 06:57:52;;;;;;;0.57;0.50;;;;;;;36.84;26.11;160891.92;1585817;90;21331;-87
2021/05/12 07:00:24;;;;;;;2.05;0.60;;;;;;;36.88;26.11;160903.97;1586135;90;21233;-86
2021/05/12 07:02:57;;;;;;;0.55;0.50;;;;;;;36.91;26.03;160912.06;1585997;89;21994;-86
2021/05/12 07:05:29;;;;;;;0.80;0.65;;;;;;;36.98;25.96;160929.47;1586046;90;21232;-86
2021/05/12 07:08:01;;;;;;;0.55;0.50;;;;;;;36.97;25.87;160926.80;1586111;89;21411;-85
2021/05/12 07:10:33;;;;;;;0.53;0.50;;;;;;;37.01;25.82;160938.83;1585942;90;21272;-87
2021/05/12 07:13:07;;;;;;;0.30;0.30;;;;;;;37.05;25.73;160950.87;1585741;89;21331;-86
2021/05/12 07:15:40;;;;;;;0.30;0.30;;;;;;;37.03;25.72;160944.20;1585898;89;21228;-86
2021/05/12 07:18:13;;;;;;;1.15;0.37;;;;;;;37.05;25.68;160949.50;1585951;90;21225;-85
2021/05/12 07:20:46;;;;;;;0.50;0.30;;;;;;;37.05;25.66;160950.87;1585957;90;21232;-87
2021/05/12 07:23:23;;;;;;;0.70;0.50;;;;;;;37.05;25.58;160950.87;1586128;90;21272;-87
2021/05/12 07:25:57;;;;;;;0.28;0.28;;;;;;;37.05;25.59;160950.87;1585980;89;21316;-86
2021/05/12 07:28:29;;;;;;;1.67;0.60;;;;;;;37.05;25.58;160950.87;1581597;90;21260;-86
2021/05/12 07:31:01;;;;;;;2.52;1.07;;;;;;;37.04;25.58;160946.83;1577479;91;21237;-87
2021/05/12 07:33:35;;;;;;;2.42;0.70;;;;;;;37.07;25.58;160956.25;1577487;90;21890;-86
2021/05/12 07:36:08;;;;;;;0.60;0.50;;;;;;;37.12;25.52;160968.28;1577475;91;21280;-87
2021/05/12 07:38:40;;;;;;;0.93;0.50;;;;;;;37.10;25.53;160962.92;1577419;91;21280;-88
2021/05/12 07:41:13;;;;;;;1.17;0.70;;;;;;;37.28;25.42;161011.09;1577463;90;21359;-87
2021/05/12 07:43:45;;;;;;;1.52;0.82;;;;;;;37.25;25.46;161003.09;1562382;91;21270;-86
2021/05/12 07:46:18;;;;;;;1.10;0.78;;;;;;;37.92;25.06;161183.97;1577433;91;21383;-86
2021/05/12 07:48:52;;;;;;;1.20;0.70;;;;;;;38.02;24.95;161212.13;1577541;91;21878;-86
2021/05/12 07:51:24;;;;;;;0.70;0.50;;;;;;;38.00;24.98;161206.75;1577472;91;21371;-86
2021/05/12 07:53:57;;;;;;;0.93;0.70;;;;;;;37.90;24.99;161177.28;1577494;90;21257;-87
2021/05/12 07:56:29;;;;;;;0.60;0.60;;;;;;;37.78;25.14;161145.09;1577576;91;21819;-86
2021/05/12 07:59:02;;;;;;;0.85;0.55;;;;;;;38.13;24.89;161241.59;1577404;89;21398;-86
2021/05/12 08:01:44;;;;;;;0.72;0.60;;;;;;;38.02;24.98;161212.13;1577505;91;21371;-86
2021/05/12 08:04:11;;;;;;;1.05;0.70;;;;;;;37.92;25.14;161182.66;1577313;90;21253;-87
2021/05/12 08:06:43;;;;;;;0.80;0.40;;;;;;;37.49;25.31;161068.75;1577558;91;21241;-86
2021/05/12 08:09:16;;;;;;;0.75;0.75;;;;;;;38.65;24.68;161381.08;1577339;91;21288;-86
2021/05/12 08:11:49;;;;;;;0.53;0.53;;;;;;;37.31;25.49;161019.16;1577443;90;21268;-86
2021/05/12 08:14:21;;;;;;;1.87;0.68;;;;;;;37.23;25.59;160999.06;1577642;91;21894;-86
2021/05/12 08:16:54;;;;;;;1.05;0.60;;;;;;;37.23;25.62;160999.06;1577450;91;21462;-86
2021/05/12 08:19:27;;;;;;;1.10;0.50;;;;;;;37.21;25.68;160992.37;1577468;90;21280;-86
2021/05/12 08:22:08;;;;;;;0.95;0.40;;;;;;;37.18;25.67;160984.33;1577394;89;21281;-86
2021/05/12 08:24:41;;;;;;;0.53;0.43;;;;;;;37.19;25.68;160988.37;1577730;91;21284;-86
2021/05/12 08:27:13;;;;;;;1.05;0.50;;;;;;;38.16;25.23;161249.64;1577657;91;21278;-86
2021/05/12 08:29:46;;;;;;;1.32;0.60;;;;;;;37.18;25.71;160984.33;1577382;88;21280;-86
2021/05/12 08:32:18;;;;;;;0.70;0.50;;;;;;;37.27;25.73;161008.41;1577545;90;21360;-87
2021/05/12 08:34:51;;;;;;;1.70;0.60;;;;;;;37.23;25.74;160999.06;1577478;91;21284;-86
2021/05/12 08:37:24;;;;;;;1.60;0.55;;;;;;;37.21;25.79;160992.37;1577535;90;21232;-86
2021/05/12 08:39:57;;;;;;;0.65;0.60;;;;;;;37.22;25.76;160995.06;1577452;89;21233;-87
2021/05/12 08:42:29;;;;;;;0.70;0.70;;;;;;;37.24;25.73;161000.42;1577463;91;21269;-87
2021/05/12 08:45:02;;;;;;;0.50;0.50;;;;;;;37.30;25.71;161017.83;1577647;91;21875;-86
2021/05/12 08:47:34;;;;;;;1.57;0.57;;;;;;;37.26;25.75;161007.09;1577604;91;21779;-86
2021/05/12 08:50:08;;;;;;;0.47;0.47;;;;;;;37.37;25.69;161036.61;1577479;91;21415;-86
2021/05/12 08:52:40;;;;;;;1.45;0.60;;;;;;;37.40;25.60;161043.28;1562326;91;21915;-86
2021/05/12 08:55:13;;;;;;;0.62;0.53;;;;;;;37.45;25.55;161058.02;1577371;89;21304;-86
2021/05/12 08:57:45;;;;;;;0.65;0.50;;;;;;;37.49;25.48;161068.75;1577570;91;21402;-86
2021/05/12 09:00:18;;;;;;;0.78;0.50;;;;;;;37.47;25.49;161062.06;1577444;89;21422;-84
2021/05/12 09:02:51;;;;;;;1.02;0.55;;;;;;;37.51;25.51;161072.75;1577532;89;21272;-86
2021/05/12 09:05:23;;;;;;;0.88;0.50;;;;;;;37.57;25.60;161088.84;1577366;90;21229;-85
2021/05/12 09:07:56;;;;;;;0.50;0.50;;;;;;;37.68;25.66;161118.30;1577506;91;21289;-86
2021/05/12 09:10:29;;;;;;;0.75;0.50;;;;;;;37.80;25.68;161150.50;1577461;91;21371;-86
2021/05/12 09:13:01;;;;;;;0.62;0.50;;;;;;;37.91;25.58;161179.97;1577553;91;21455;-86
2021/05/12 09:15:34;;;;;;;1.27;0.57;;;;;;;37.96;25.47;161194.70;1577404;91;21434;-86
2021/05/12 09:18:07;;;;;;;0.37;0.37;;;;;;;38.00;25.46;161206.75;1577508;89;21820;-86
2021/05/12 09:20:42;;;;;;;1.15;0.40;;;;;;;38.07;25.43;161225.53;1577496;90;21281;-85
2021/05/12 09:23:19;;;;;;;0.47;0.47;;;;;;;38.08;25.39;161228.17;1577504;91;21414;-85
2021/05/12 09:25:57;;;;;;;0.80;0.60;;;;;;;38.14;25.33;161244.28;1577362;91;21276;-85
2021/05/12 09:28:30;;;;;;;0.60;0.50;;;;;;;38.13;25.33;161240.28;1577659;91;21847;-85
2021/05/12 09:31:15;;;;;;;0.40;0.40;;;;;;;38.13;25.35;161241.59;1577293;90;21264;-85
2021/05/12 09:33:52;;;;;;;1.27;0.40;;;;;;;38.14;25.47;161244.28;1577560;91;21383;-85
2021/05/12 09:36:29;;;;;;;0.60;0.60;;;;;;;38.19;25.48;161257.70;1576402;89;21852;-86
2021/05/12 09:39:02;;;;;;;1.47;0.70;;;;;;;38.23;25.51;161267.13;1575806;90;21891;-86
2021/05/12 09:41:36;;;;;;;0.75;0.60;;;;;;;38.25;25.53;161273.81;1575833;90;21218;-86
2021/05/12 09:44:09;;;;;;;0.72;0.70;;;;;;;38.28;25.48;161281.84;1577178;89;21351;-87
2021/05/12 09:46:42;;;;;;;0.50;0.50;;;;;;;38.38;25.37;161307.28;1576037;91;21406;-87
2021/05/12 09:49:16;;;;;;;0.50;0.50;;;;;;;38.45;25.31;161327.37;1575378;89;21222;-84
2021/05/12 09:51:50;;;;;;;0.50;0.50;;;;;;;38.46;25.29;161328.75;1575422;89;21297;-85
2021/05/12 09:54:28;;;;;;;0.55;0.40;;;;;;;38.39;25.20;161311.33;1575489;89;21210;-84
2021/05/12 09:56:57;;;;;;;0.85;0.60;;;;;;;38.42;25.11;161319.38;1589103;89;21279;-85
2021/05/12 09:59:40;;;;;;;0.60;0.40;;;;;;;38.34;25.10;161297.91;1616635;87;21597;-86
2021/05/12 10:02:05;;;;;;;0.70;0.30;;;;;;;38.24;25.13;161271.12;1588629;88;21257;-86
2021/05/12 10:04:40;;;;;;;0.40;0.40;;;;;;;38.25;25.11;161272.48;1565331;91;21805;-86
2021/05/12 10:07:28;;;;;;;0.72;0.50;;;;;;;38.20;25.13;161260.33;1581087;89;21221;-87
2021/05/12 10:10:00;;;;;;;0.50;0.50;;;;;;;38.30;25.07;161287.22;1607020;87;21724;-87
2021/05/12 10:12:33;;;;;;;0.72;0.42;;;;;;;38.29;25.06;161283.17;1603256;87;21190;-86
2021/05/12 10:15:07;;;;;;;0.60;0.60;;;;;;;38.23;25.11;161267.13;1596396;88;21451;-85
2021/05/12 10:17:39;;;;;;;0.62;0.50;;;;;;;38.31;25.07;161288.53;1610831;88;21249;-87
2021/05/12 10:20:12;;;;;;;0.40;0.40;;;;;;;38.26;25.06;161276.48;1624087;87;21306;-86
2021/05/12 10:22:46;;;;;;;0.20;0.20;;;;;;;38.33;24.96;161293.91;1616700;87;21209;-85
2021/05/12 10:25:18;;;;;;;0.30;0.30;;;;;;;38.34;24.93;161296.59;1608994;88;21257;-87
2021/05/12 10:27:51;;;;;;;0.60;0.50;;;;;;;38.41;24.86;161316.70;1608097;88;21233;-87
2021/05/12 10:30:23;;;;;;;3.40;0.50;;;;;;;38.26;24.90;161276.48;1594954;89;21783;-87
2021/05/12 10:32:57;;;;;;;0.40;0.40;;;;;;;38.29;24.89;161284.53;1651257;86;21261;-88
2021/05/12 10:35:43;;;;;;;2.27;0.47;;;;;;;38.20;24.98;161260.33;1637683;86;21265;-87
2021/05/12 10:38:33;;;;;;;0.42;0.30;;;;;;;38.23;24.98;161267.13;1632776;86;21709;-88
2021/05/12 10:41:06;;;;;;;0.65;0.60;;;;;;;38.24;25.04;161269.80;1628194;86;21401;-86
2021/05/12 10:43:42;;;;;;;1.47;0.50;;;;;;;38.35;25.04;161299.28;1628446;86;21254;-88
2021/05/12 10:46:18;;;;;;;0.90;0.50;;;;;;;38.38;25.06;161307.28;1629496;86;21455;-88
2021/05/12 10:48:48;;;;;;;0.50;0.50;;;;;;;38.45;25.11;161326.06;1637894;85;21272;-88
2021/05/12 10:51:33;;;;;;;1.25;0.50;;;;;;;38.47;25.06;161332.75;1647379;85;21176;-87
2021/05/12 10:54:09;;;;;;;0.50;0.50;;;;;;;38.49;24.98;161338.13;1629598;86;21389;-88
2021/05/12 10:56:42;;;;;;;0.50;0.50;;;;;;;38.56;25.01;161356.86;1629665;86;21417;-89
2021/05/12 10:59:18;;;;;;;3.30;0.60;;;;;;;38.54;25.05;161351.50;1629266;86;21244;-88
2021/05/12 11:01:54;;;;;;;0.75;0.50;;;;;;;38.53;25.13;161348.86;1609166;89;21204;-87
2021/05/12 11:04:28;;;;;;;0.90;0.40;;;;;;;38.56;25.08;161356.86;1614668;87;21729;-88
2021/05/12 11:07:01;;;;;;;0.80;0.50;;;;;;;38.55;25.06;161352.86;1627721;87;21916;-89
2021/05/12 11:09:41;;;;;;;1.12;0.80;;;;;;;38.57;25.06;161358.23;1616701;88;21784;-87
2021/05/12 11:12:17;;;;;;;1.35;0.80;;;;;;;38.57;25.05;161358.23;1577291;89;21176;-88
2021/05/12 11:14:57;;;;;;;1.20;0.60;;;;;;;38.59;25.02;161364.91;1584521;89;21305;-86
2021/05/12 11:17:47;;;;;;;0.72;0.50;;;;;;;38.62;25.03;161372.97;1584977;90;21305;-88
2021/05/12 11:20:21;;;;;;;0.80;0.65;;;;;;;38.62;24.98;161371.61;1584893;89;21233;-87
2021/05/12 11:22:54;;;;;;;0.75;0.53;;;;;;;38.64;24.95;161376.97;1584134;89;21211;-86
2021/05/12 11:25:39;;;;;;;2.08;0.60;;;;;;;38.64;24.94;161378.34;1584748;89;21236;-88
2021/05/12 11:33:39;;;;;;;0.55;0.55;;;;;;;38.70;24.87;161394.45;1582246;88;21308;-88
2021/05/12 11:36:15;;;;;;;0.60;0.60;;;;;;;38.71;24.77;161397.13;1617808;87;21241;-88
2021/05/12 11:38:50;;;;;;;0.47;0.40;;;;;;;38.75;24.80;161407.88;1628045;88;21278;-85
2021/05/12 11:41:24;;;;;;;2.70;0.60;;;;;;;38.77;24.71;161413.25;1613100;87;21166;-87
2021/05/12 11:44:02;;;;;;;0.50;0.50;;;;;;;38.77;24.72;161413.25;1621864;87;21992;-89
2021/05/12 11:46:40;;;;;;;0.42;0.42;;;;;;;38.75;24.69;161407.88;1623503;88;21815;-89
2021/05/12 11:49:14;;;;;;;0.50;0.50;;;;;;;38.77;24.65;161413.25;1622874;88;21291;-89
2021/05/12 11:51:49;;;;;;;0.33;0.33;;;;;;;38.83;24.62;161427.98;1622484;88;21168;-90
2021/05/12 11:54:25;;;;;;;0.47;0.47;;;;;;;38.72;24.59;161399.81;1624596;87;21288;-88
2021/05/12 11:56:59;;;;;;;2.20;0.42;;;;;;;38.73;24.63;161402.50;1633235;86;21175;-85
2021/05/12 11:59:34;;;;;;;1.57;0.50;;;;;;;38.69;24.60;161391.77;1639737;86;21194;-89
2021/05/12 12:02:13;;;;;;;0.90;0.53;;;;;;;38.74;24.58;161403.81;1614424;87;21244;-89
2021/05/12 12:07:19;;;;;;;0.45;0.45;;;;;;;38.62;24.54;161372.97;1633742;86;21735;-86
2021/05/12 12:10:06;;;;;;;0.85;0.53;;;;;;;38.63;24.55;161374.28;1629807;86;21393;-87
2021/05/12 12:12:39;;;;;;;0.82;0.47;;;;;;;38.61;24.51;161370.28;1608980;87;21719;-88